Time;durP1;ratioP1;P1;durP2;ratioP2;P2;SDS_P1;SDS_P2;PMS_P1;PMS_P2;Temp;Humidity;BMP_temperature;BMP_pressure;BME280_temperature;BME280_humidity;BME280_pressure;Samples;Min_cycle;Max_cycle;Signal;HPM_P1;HPM_P2
2021/09/19 00:01:41;;;;;;;9.60;8.60;;;15.50;99.90;;;;;;5150123;27;20065;-55
2021/09/19 00:04:10;;;;;;;9.38;8.23;;;15.50;99.90;;;;;;5149031;27;20046;-54
2021/09/19 00:06:37;;;;;;;8.13;7.43;;;15.50;99.90;;;;;;5148773;27;20059;-54
2021/09/19 00:09:08;;;;;;;8.52;7.50;;;15.50;99.90;;;;;;5148611;27;20684;-55
2021/09/19 00:11:38;;;;;;;8.07;7.00;;;15.50;99.90;;;;;;5150434;27;20518;-54
2021/09/19 00:14:04;;;;;;;7.88;6.30;;;15.50;99.90;;;;;;5147692;27;20050;-54
2021/09/19 00:16:34;;;;;;;6.20;5.60;;;15.60;99.90;;;;;;5128840;27;20097;-57
2021/09/19 00:19:08;;;;;;;7.07;6.35;;;15.50;99.90;;;;;;5148998;27;20042;-56
2021/09/19 00:21:40;;;;;;;6.90;5.75;;;15.50;99.90;;;;;;5148530;27;20172;-53
2021/09/19 00:24:13;;;;;;;5.95;5.35;;;15.60;99.90;;;;;;5144149;27;20477;-55
2021/09/19 00:26:45;;;;;;;6.10;5.38;;;15.60;99.90;;;;;;5142819;27;20138;-57
2021/09/19 00:29:14;;;;;;;8.48;6.72;;;15.60;99.90;;;;;;5143456;27;20045;-56
2021/09/19 00:31:42;;;;;;;5.35;4.40;;;15.50;99.90;;;;;;5149601;27;20086;-54
2021/09/19 00:34:14;;;;;;;4.95;4.13;;;15.50;99.90;;;;;;5145693;27;20051;-55
2021/09/19 00:36:43;;;;;;;6.90;4.55;;;15.50;99.90;;;;;;5144214;27;20573;-56
2021/09/19 00:39:12;;;;;;;7.30;5.85;;;15.50;99.90;;;;;;5149764;27;20057;-57
2021/09/19 00:41:44;;;;;;;;;;;15.50;99.90;;;;;;5150655;27;20817;-56
2021/09/19 00:44:15;;;;;;;8.68;7.35;;;15.50;99.90;;;;;;5149769;27;19941;-55
2021/09/19 00:46:44;;;;;;;5.47;4.05;;;15.50;99.90;;;;;;5129241;27;20038;-54
2021/09/19 00:49:14;;;;;;;4.85;3.80;;;15.50;99.90;;;;;;5112338;27;20097;-57
2021/09/19 00:51:48;;;;;;;4.32;3.60;;;15.50;99.90;;;;;;5147696;27;20062;-55
2021/09/19 00:54:16;;;;;;;4.73;3.27;;;15.50;99.90;;;;;;5148153;27;20097;-57
2021/09/19 00:56:45;;;;;;;6.00;3.88;;;15.50;99.90;;;;;;5130129;27;20053;-56
2021/09/19 00:59:23;;;;;;;4.70;3.53;;;15.50;99.90;;;;;;5147987;27;20146;-56
2021/09/19 01:01:54;;;;;;;3.88;3.22;;;15.50;99.90;;;;;;5148393;27;20058;-56
2021/09/19 01:04:23;;;;;;;4.93;3.40;;;15.40;99.90;;;;;;5149060;27;20054;-55
2021/09/19 01:06:49;;;;;;;4.82;3.00;;;15.40;99.90;;;;;;5144800;27;20051;-55
2021/09/19 01:09:19;;;;;;;5.53;4.35;;;15.40;99.90;;;;;;5137602;27;20055;-55
2021/09/19 01:11:50;;;;;;;4.32;2.60;;;15.40;99.90;;;;;;5137592;27;20818;-55
2021/09/19 01:14:23;;;;;;;8.07;2.80;;;15.40;99.90;;;;;;5149780;27;20052;-56
2021/09/19 01:16:54;;;;;;;3.75;2.83;;;15.40;99.90;;;;;;5137423;27;20728;-56
2021/09/19 01:19:26;;;;;;;5.13;3.40;;;15.40;99.90;;;;;;5148533;27;20107;-56
2021/09/19 01:21:58;;;;;;;4.75;2.85;;;15.30;99.90;;;;;;5130310;27;20080;-56
2021/09/19 01:24:30;;;;;;;4.05;2.50;;;15.30;99.90;;;;;;5144396;27;20131;-54
2021/09/19 01:26:58;;;;;;;5.60;3.20;;;15.30;99.90;;;;;;5136848;27;20499;-52
2021/09/19 01:29:25;;;;;;;4.35;2.50;;;15.30;99.90;;;;;;5149479;27;20157;-56
2021/09/19 01:31:56;;;;;;;5.78;2.75;;;15.30;99.90;;;;;;5137972;27;20134;-53
2021/09/19 01:34:23;;;;;;;3.22;2.58;;;15.30;99.90;;;;;;5147272;27;20050;-56
2021/09/19 01:36:52;;;;;;;5.93;3.17;;;15.30;99.90;;;;;;5146418;27;20046;-56
2021/09/19 01:39:19;;;;;;;5.35;2.75;;;15.20;99.90;;;;;;5147034;27;20042;-56
2021/09/19 01:41:51;;;;;;;4.60;2.08;;;15.30;99.90;;;;;;5137056;27;20558;-55
2021/09/19 01:44:22;;;;;;;2.88;2.58;;;15.20;99.90;;;;;;5149306;27;20057;-56
2021/09/19 01:46:49;;;;;;;5.03;3.50;;;15.30;99.90;;;;;;5123628;27;20054;-53
2021/09/19 01:49:18;;;;;;;4.55;2.65;;;15.20;99.90;;;;;;5145379;27;20058;-52
2021/09/19 01:51:46;;;;;;;3.58;2.60;;;15.20;99.90;;;;;;5147353;27;20392;-56
2021/09/19 01:54:16;;;;;;;3.72;2.85;;;15.20;99.90;;;;;;5145962;27;20042;-55
2021/09/19 01:56:43;;;;;;;5.30;3.63;;;15.20;99.90;;;;;;5126746;27;20502;-55
2021/09/19 01:59:12;;;;;;;5.65;3.78;;;15.20;99.90;;;;;;5127857;27;20638;-56
2021/09/19 02:01:46;;;;;;;4.93;2.78;;;15.20;99.90;;;;;;5145609;27;20051;-55
2021/09/19 02:04:19;;;;;;;3.83;3.03;;;15.20;99.90;;;;;;5139624;27;20061;-55
2021/09/19 02:06:48;;;;;;;4.03;2.78;;;15.20;99.90;;;;;;5146588;27;20085;-56
2021/09/19 02:09:17;;;;;;;4.57;3.05;;;15.20;99.90;;;;;;5128400;27;20807;-55
2021/09/19 02:11:45;;;;;;;5.22;3.15;;;15.10;99.90;;;;;;5137197;27;20058;-56
2021/09/19 02:14:14;;;;;;;4.53;2.83;;;15.20;99.90;;;;;;5146706;27;20078;-57
2021/09/19 02:16:41;;;;;;;5.15;2.85;;;15.20;99.90;;;;;;5146073;27;20756;-57
2021/09/19 02:19:10;;;;;;;4.55;2.85;;;15.10;99.90;;;;;;5146724;27;20051;-57
2021/09/19 02:21:38;;;;;;;5.27;3.20;;;15.10;99.90;;;;;;5148333;27;20123;-56
2021/09/19 02:24:08;;;;;;;4.40;3.00;;;15.10;99.90;;;;;;5128506;27;20546;-56
2021/09/19 02:26:38;;;;;;;4.55;3.15;;;15.10;99.90;;;;;;5147703;27;20051;-56
2021/09/19 02:29:10;;;;;;;6.20;4.80;;;15.10;99.90;;;;;;5136965;27;20062;-57
2021/09/19 02:31:36;;;;;;;4.20;2.80;;;15.10;99.90;;;;;;5148611;27;20057;-57
2021/09/19 02:34:05;;;;;;;4.63;3.60;;;15.10;99.90;;;;;;5147735;27;20138;-57
2021/09/19 02:36:33;;;;;;;5.97;4.03;;;15.10;99.90;;;;;;5147198;27;20046;-56
2021/09/19 02:39:02;;;;;;;4.88;3.70;;;15.10;99.90;;;;;;5118643;27;20203;-56
2021/09/19 02:41:31;;;;;;;5.97;3.83;;;15.10;99.90;;;;;;5140300;27;20491;-56
2021/09/19 02:43:57;;;;;;;6.72;3.75;;;15.10;99.90;;;;;;5147299;27;20038;-55
2021/09/19 02:46:33;;;;;;;4.97;3.90;;;15.10;99.90;;;;;;5099632;27;20066;-56
2021/09/19 02:49:03;;;;;;;5.80;3.88;;;15.10;99.90;;;;;;5119040;27;20792;-57
2021/09/19 02:51:33;;;;;;;5.65;3.60;;;15.10;99.90;;;;;;5122687;28;20047;-57
2021/09/19 02:54:04;;;;;;;6.15;4.75;;;15.00;99.90;;;;;;5127231;27;20055;-56
2021/09/19 02:56:35;;;;;;;8.73;4.80;;;15.00;99.90;;;;;;5116014;27;20530;-56
2021/09/19 02:59:02;;;;;;;5.20;4.35;;;15.10;99.90;;;;;;5116859;28;20039;-56
2021/09/19 03:01:28;;;;;;;7.50;4.45;;;15.00;99.90;;;;;;5115658;27;20051;-57
2021/09/19 03:03:58;;;;;;;6.47;4.60;;;15.00;99.90;;;;;;5119959;27;20058;-56
2021/09/19 03:06:27;;;;;;;7.35;4.65;;;15.00;99.90;;;;;;5113785;28;20130;-56
2021/09/19 03:08:59;;;;;;;8.75;5.25;;;15.00;99.90;;;;;;5121723;27;20047;-56
2021/09/19 03:11:26;;;;;;;7.78;5.10;;;15.10;99.90;;;;;;5112922;28;20138;-57
2021/09/19 03:13:53;;;;;;;5.85;5.25;;;15.10;99.90;;;;;;5124796;28;20075;-59
2021/09/19 03:16:22;;;;;;;7.70;5.40;;;15.10;99.90;;;;;;5127297;27;20055;-55
2021/09/19 03:18:53;;;;;;;7.10;5.18;;;15.00;99.90;;;;;;5126531;28;20050;-55
2021/09/19 03:21:22;;;;;;;6.13;5.25;;;15.10;99.90;;;;;;5125478;27;20051;-54
2021/09/19 03:23:50;;;;;;;6.72;5.50;;;15.10;99.90;;;;;;5126427;27;20166;-56
2021/09/19 03:26:17;;;;;;;6.40;5.78;;;15.00;99.90;;;;;;5126301;27;20057;-56
2021/09/19 03:28:43;;;;;;;7.35;6.50;;;15.00;99.90;;;;;;5124482;28;20069;-56
2021/09/19 03:31:12;;;;;;;6.90;6.18;;;15.00;99.90;;;;;;5108421;28;20051;-54
2021/09/19 03:33:41;;;;;;;7.07;6.38;;;15.10;99.90;;;;;;5125016;27;20499;-56
2021/09/19 03:36:10;;;;;;;8.77;7.13;;;15.00;99.90;;;;;;5110494;28;20059;-56
2021/09/19 03:38:39;;;;;;;8.13;6.50;;;15.00;99.90;;;;;;5120426;27;20583;-56
2021/09/19 03:41:05;;;;;;;9.18;6.15;;;15.00;99.90;;;;;;5131518;27;20061;-55
2021/09/19 03:43:39;;;;;;;8.30;6.30;;;15.00;99.90;;;;;;5121836;27;20058;-56
2021/09/19 03:46:06;;;;;;;6.80;5.88;;;15.00;99.90;;;;;;5113799;27;20423;-56
2021/09/19 03:48:37;;;;;;;9.27;6.75;;;15.00;99.90;;;;;;5126782;27;20062;-56
2021/09/19 03:51:12;;;;;;;8.27;6.47;;;15.00;99.90;;;;;;5130047;27;20059;-55
2021/09/19 03:53:41;;;;;;;;;;;15.00;99.90;;;;;;5129851;27;20067;-54
2021/09/19 03:56:08;;;;;;;10.45;7.00;;;15.00;99.90;;;;;;5129555;27;20481;-55
2021/09/19 03:58:37;;;;;;;8.55;6.40;;;15.00;99.90;;;;;;5129525;27;20062;-56
2021/09/19 04:01:05;;;;;;;7.93;6.35;;;15.00;99.90;;;;;;5129648;27;20050;-57
2021/09/19 04:03:37;;;;;;;7.20;6.47;;;15.00;99.90;;;;;;5123629;27;20047;-54
2021/09/19 04:06:05;;;;;;;7.63;6.37;;;15.00;99.90;;;;;;5127407;27;20112;-55
2021/09/19 04:08:32;;;;;;;8.52;6.47;;;14.90;99.90;;;;;;5126202;27;20054;-56
2021/09/19 04:10:58;;;;;;;9.50;6.97;;;15.00;99.90;;;;;;5123747;27;20081;-56
2021/09/19 04:13:28;;;;;;;8.43;7.03;;;15.00;99.90;;;;;;5129110;27;20051;-56
2021/09/19 04:15:57;;;;;;;7.78;6.57;;;14.90;99.90;;;;;;5128129;27;20089;-56
2021/09/19 04:18:23;;;;;;;8.70;6.95;;;14.90;99.90;;;;;;5128685;27;20043;-56
2021/09/19 04:20:53;;;;;;;7.57;6.68;;;14.90;99.90;;;;;;5127799;27;20055;-54
2021/09/19 04:23:24;;;;;;;7.53;6.72;;;14.90;99.90;;;;;;5129268;27;20058;-55
2021/09/19 04:25:50;;;;;;;6.95;6.25;;;14.80;99.90;;;;;;5128891;27;20118;-57
2021/09/19 04:28:17;;;;;;;9.68;7.05;;;14.80;99.90;;;;;;5130047;27;20171;-56
2021/09/19 04:30:43;;;;;;;8.48;6.00;;;14.90;99.90;;;;;;5128846;27;20051;-57
2021/09/19 04:33:10;;;;;;;8.80;6.60;;;14.80;99.90;;;;;;5130750;27;20058;-56
2021/09/19 04:35:39;;;;;;;8.43;6.95;;;14.80;99.90;;;;;;5128246;27;20558;-57
2021/09/19 04:38:06;;;;;;;7.78;6.07;;;14.80;99.90;;;;;;5128725;27;20058;-57
2021/09/19 04:40:38;;;;;;;10.20;6.68;;;14.80;99.90;;;;;;5128078;27;20134;-57
2021/09/19 04:43:11;;;;;;;9.63;5.30;;;14.70;99.90;;;;;;5129024;27;20047;-56
2021/09/19 04:45:39;;;;;;;9.40;5.78;;;14.70;99.90;;;;;;5111581;27;20056;-55
2021/09/19 04:48:06;;;;;;;9.70;5.95;;;14.60;99.90;;;;;;5125847;27;20118;-55
2021/09/19 04:50:33;;;;;;;8.10;6.63;;;14.60;99.90;;;;;;5150388;27;20073;-57
2021/09/19 04:53:02;;;;;;;7.57;6.53;;;14.60;99.90;;;;;;5129676;27;20054;-56
2021/09/19 04:55:33;;;;;;;9.15;5.93;;;14.60;99.90;;;;;;5129911;27;20510;-56
2021/09/19 04:57:59;;;;;;;8.18;5.55;;;14.60;99.90;;;;;;5127283;27;20047;-56
2021/09/19 05:00:31;;;;;;;7.75;5.82;;;14.50;99.90;;;;;;5145300;27;20138;-57
2021/09/19 05:03:00;;;;;;;6.85;5.53;;;14.50;99.90;;;;;;5136824;27;20058;-57
2021/09/19 05:05:26;;;;;;;8.27;5.88;;;14.40;99.90;;;;;;5133670;27;20050;-57
2021/09/19 05:07:55;;;;;;;11.00;5.72;;;14.40;99.90;;;;;;5141831;27;20057;-57
2021/09/19 05:10:24;;;;;;;7.75;5.85;;;14.30;99.90;;;;;;5111981;27;20054;-55
2021/09/19 05:12:53;;;;;;;8.80;5.60;;;14.30;99.90;;;;;;5141715;27;20047;-54
2021/09/19 05:15:22;;;;;;;7.70;5.78;;;14.20;99.90;;;;;;5144897;27;20065;-55
2021/09/19 05:17:51;;;;;;;10.48;6.32;;;14.20;99.90;;;;;;5148077;27;20043;-57
2021/09/19 05:20:20;;;;;;;9.73;6.32;;;14.20;99.90;;;;;;5129971;27;20054;-56
2021/09/19 05:22:47;;;;;;;10.10;6.68;;;14.20;99.90;;;;;;5148562;27;20050;-57
2021/09/19 05:25:17;;;;;;;10.38;6.00;;;14.10;99.90;;;;;;5146858;27;20415;-57
2021/09/19 05:27:50;;;;;;;8.77;5.38;;;14.10;99.90;;;;;;5149854;27;20054;-55
2021/09/19 05:30:18;;;;;;;7.55;6.05;;;14.00;99.90;;;;;;5147809;27;20054;-56
2021/09/19 05:32:46;;;;;;;9.48;5.78;;;14.00;99.90;;;;;;5149566;27;20055;-56
2021/09/19 05:35:15;;;;;;;7.63;5.53;;;13.90;99.90;;;;;;5122717;27;20050;-54
2021/09/19 05:37:46;;;;;;;9.48;6.45;;;13.90;99.90;;;;;;5148437;27;20054;-53
2021/09/19 05:40:14;;;;;;;9.27;6.95;;;13.80;99.90;;;;;;5127442;27;20050;-56
2021/09/19 05:42:41;;;;;;;9.45;6.65;;;13.80;99.90;;;;;;5128317;27;20057;-55
2021/09/19 05:45:08;;;;;;;11.50;6.95;;;13.70;99.90;;;;;;5139606;27;20051;-56
2021/09/19 05:47:34;;;;;;;11.15;7.65;;;13.70;99.90;;;;;;5128953;27;20118;-54
2021/09/19 05:50:01;;;;;;;8.88;7.90;;;13.70;99.90;;;;;;5147760;27;20058;-57
2021/09/19 05:52:27;;;;;;;9.55;7.28;;;13.60;99.90;;;;;;5127483;27;20102;-55
2021/09/19 05:54:56;;;;;;;9.15;7.47;;;13.60;99.90;;;;;;5143984;27;20050;-57
2021/09/19 05:57:24;;;;;;;9.88;7.50;;;13.60;99.90;;;;;;5147436;27;20057;-56
2021/09/19 05:59:59;;;;;;;9.25;7.78;;;13.60;99.90;;;;;;5125249;27;21000;-56
2021/09/19 06:02:31;;;;;;;12.13;7.68;;;13.60;99.90;;;;;;5147262;27;20047;-55
2021/09/19 06:04:57;;;;;;;10.68;7.57;;;13.50;99.90;;;;;;5146515;27;20038;-56
2021/09/19 06:07:26;;;;;;;11.25;7.60;;;13.50;99.90;;;;;;5142565;27;20038;-55
2021/09/19 06:09:57;;;;;;;11.10;7.28;;;13.50;99.90;;;;;;5146031;27;20512;-56
2021/09/19 06:12:28;;;;;;;10.65;7.63;;;13.60;99.90;;;;;;5146246;27;20134;-54
2021/09/19 06:14:54;;;;;;;11.55;7.57;;;13.60;99.90;;;;;;5115329;27;20130;-53
2021/09/19 06:17:29;;;;;;;13.43;8.02;;;13.60;99.90;;;;;;5120127;27;20087;-56
2021/09/19 06:19:55;;;;;;;;;;;13.50;99.90;;;;;;5145908;27;20042;-56
2021/09/19 06:22:24;;;;;;;11.27;7.78;;;13.50;99.90;;;;;;5142898;27;19948;-57
2021/09/19 06:24:53;;;;;;;8.70;7.07;;;13.70;99.90;;;;;;5127241;27;20088;-58
2021/09/19 06:27:23;;;;;;;11.77;8.15;;;13.80;99.90;;;;;;5143845;27;20301;-60
2021/09/19 06:29:52;;;;;;;8.63;6.47;;;13.90;99.90;;;;;;5147107;27;20046;-59
2021/09/19 06:32:18;;;;;;;8.57;6.97;;;14.00;99.90;;;;;;5141635;27;20497;-58
2021/09/19 06:34:47;;;;;;;9.93;7.50;;;14.10;99.90;;;;;;5147522;27;20561;-58
2021/09/19 06:37:13;;;;;;;9.10;7.75;;;14.10;99.90;;;;;;5139203;27;20047;-58
2021/09/19 06:39:45;;;;;;;10.32;7.55;;;14.20;99.90;;;;;;5118528;27;20558;-58
2021/09/19 06:42:14;;;;;;;9.60;5.75;;;14.20;99.90;;;;;;5146313;27;20593;-59
2021/09/19 06:44:40;;;;;;;10.75;7.78;;;14.10;99.90;;;;;;5147972;27;20045;-59
2021/09/19 06:47:10;;;;;;;9.13;6.35;;;14.30;99.90;;;;;;5124982;27;20054;-58
2021/09/19 06:49:37;;;;;;;8.50;7.20;;;14.30;99.90;;;;;;5138626;27;20065;-59
2021/09/19 06:52:03;;;;;;;9.05;7.25;;;14.30;99.90;;;;;;5126443;27;20126;-58
2021/09/19 06:54:32;;;;;;;8.73;6.78;;;14.30;99.90;;;;;;5126761;27;20054;-59
2021/09/19 06:57:01;;;;;;;9.77;7.45;;;14.40;99.90;;;;;;5137553;27;20058;-59
2021/09/19 06:59:28;;;;;;;9.38;7.50;;;14.40;99.90;;;;;;5136287;27;20055;-62
2021/09/19 07:01:54;;;;;;;66.43;53.15;;;14.50;99.90;;;;;;5138460;27;20050;-60
2021/09/19 07:04:23;;;;;;;64.82;52.80;;;14.60;99.90;;;;;;5137002;27;20057;-59
2021/09/19 07:06:50;;;;;;;33.47;26.23;;;14.60;99.90;;;;;;5145585;27;20050;-59
2021/09/19 07:09:18;;;;;;;27.33;23.15;;;14.70;99.90;;;;;;5152766;27;20054;-59
2021/09/19 07:11:47;;;;;;;12.55;8.88;;;14.70;99.90;;;;;;5152184;27;20514;-59
2021/09/19 07:14:19;;;;;;;16.58;12.88;;;14.70;99.90;;;;;;5129747;27;20055;-59
2021/09/19 07:16:48;;;;;;;17.35;13.63;;;14.80;99.90;;;;;;5130942;27;20162;-61
2021/09/19 07:19:20;;;;;;;81.50;72.57;;;14.80;99.90;;;;;;5133272;27;20055;-59
2021/09/19 07:21:48;;;;;;;11.15;9.00;;;14.80;99.90;;;;;;5149512;27;20046;-60
2021/09/19 07:24:17;;;;;;;11.23;7.90;;;14.90;99.90;;;;;;5128620;27;20729;-61
2021/09/19 07:26:43;;;;;;;11.50;9.00;;;14.90;99.90;;;;;;5145802;27;20047;-61
2021/09/19 07:29:15;;;;;;;10.63;8.48;;;14.80;99.90;;;;;;5148813;27;20046;-61
2021/09/19 07:31:50;;;;;;;10.60;7.93;;;14.80;99.90;;;;;;5131191;27;20051;-60
2021/09/19 07:34:20;;;;;;;10.00;8.95;;;14.80;99.90;;;;;;5148793;27;20055;-61
2021/09/19 07:36:49;;;;;;;13.15;11.57;;;14.80;99.90;;;;;;5150282;27;20054;-60
2021/09/19 07:39:21;;;;;;;9.23;8.20;;;14.90;99.90;;;;;;5144031;27;20502;-61
2021/09/19 07:41:55;;;;;;;10.85;9.68;;;14.80;99.90;;;;;;5149937;27;20587;-61
2021/09/19 07:44:25;;;;;;;10.70;9.10;;;14.80;99.90;;;;;;5138128;27;20180;-61
2021/09/19 07:46:54;;;;;;;10.82;8.35;;;14.90;99.90;;;;;;5150126;27;20051;-61
2021/09/19 07:49:28;;;;;;;10.10;8.38;;;15.20;99.90;;;;;;5141662;27;20059;-60
2021/09/19 07:51:55;;;;;;;10.85;8.65;;;15.20;99.90;;;;;;5131530;27;20157;-60
2021/09/19 07:54:22;;;;;;;11.57;8.30;;;15.30;99.90;;;;;;5134704;27;20051;-59
2021/09/19 07:56:51;;;;;;;13.52;10.25;;;15.40;99.90;;;;;;5130421;27;20146;-62
2021/09/19 07:59:17;;;;;;;10.82;8.45;;;15.60;99.90;;;;;;5130442;27;20054;-60
2021/09/19 08:01:47;;;;;;;11.93;9.45;;;15.70;99.90;;;;;;5131384;27;20074;-61
2021/09/19 08:04:13;;;;;;;12.27;10.20;;;15.90;99.90;;;;;;5130336;27;20055;-61
2021/09/19 08:06:39;;;;;;;12.00;10.63;;;16.00;99.90;;;;;;5111982;27;20461;-61
2021/09/19 08:09:11;;;;;;;11.45;9.27;;;16.10;99.90;;;;;;5138783;27;20518;-60
2021/09/19 08:11:44;;;;;;;10.35;9.27;;;16.20;99.90;;;;;;5149466;27;20055;-60
2021/09/19 08:14:15;;;;;;;9.98;8.88;;;16.20;99.90;;;;;;5150384;27;20134;-62
2021/09/19 08:16:47;;;;;;;13.73;10.25;;;16.30;99.90;;;;;;5151164;27;20059;-61
2021/09/19 08:19:16;;;;;;;11.27;8.63;;;16.50;99.90;;;;;;5135012;27;20062;-61
2021/09/19 08:21:43;;;;;;;9.75;8.73;;;16.60;99.90;;;;;;5141519;27;20055;-60
2021/09/19 08:24:11;;;;;;;10.00;8.23;;;16.70;99.90;;;;;;5148879;27;20145;-61
2021/09/19 08:26:40;;;;;;;9.50;8.02;;;16.90;99.90;;;;;;5146705;27;20182;-61
2021/09/19 08:29:08;;;;;;;10.18;8.23;;;17.20;99.90;;;;;;5146877;27;20051;-61
2021/09/19 08:31:36;;;;;;;10.82;8.38;;;17.40;99.90;;;;;;5143702;27;20109;-60
2021/09/19 08:34:05;;;;;;;10.90;8.10;;;17.30;99.90;;;;;;5134787;27;20072;-59
2021/09/19 08:36:35;;;;;;;12.23;9.77;;;17.40;99.90;;;;;;5150004;27;20057;-61
2021/09/19 08:39:09;;;;;;;18.95;17.00;;;17.50;99.90;;;;;;5146316;27;20054;-61
2021/09/19 08:41:36;;;;;;;8.82;7.95;;;17.50;99.90;;;;;;5148017;27;20110;-61
2021/09/19 08:44:03;;;;;;;9.77;7.68;;;17.30;99.90;;;;;;5148849;27;20057;-62
2021/09/19 08:46:30;;;;;;;8.90;7.22;;;17.40;99.90;;;;;;5150273;27;20784;-61
2021/09/19 08:48:57;;;;;;;8.45;7.55;;;17.40;99.90;;;;;;5148591;27;20642;-62
2021/09/19 08:51:23;;;;;;;9.23;8.05;;;17.30;99.90;;;;;;5149708;27;20562;-62
2021/09/19 08:53:53;;;;;;;10.65;8.73;;;17.50;99.90;;;;;;5146634;27;20142;-61
2021/09/19 08:56:26;;;;;;;9.25;8.00;;;17.60;99.90;;;;;;5130023;27;20561;-61
2021/09/19 08:58:53;;;;;;;11.77;8.32;;;17.80;99.90;;;;;;5145836;27;20042;-61
2021/09/19 09:01:23;;;;;;;14.70;12.00;;;17.80;99.90;;;;;;5146562;27;20046;-61
2021/09/19 09:03:50;;;;;;;19.08;17.17;;;17.90;99.90;;;;;;5137875;27;20086;-62
2021/09/19 09:06:20;;;;;;;16.33;12.98;;;18.10;99.90;;;;;;5142773;27;20054;-62
2021/09/19 09:08:48;;;;;;;15.85;14.23;;;18.30;99.90;;;;;;5147899;27;20122;-61
2021/09/19 09:11:15;;;;;;;16.05;14.35;;;18.60;99.90;;;;;;5146416;27;20054;-60
2021/09/19 09:13:44;;;;;;;10.63;7.70;;;18.80;99.90;;;;;;5150665;27;20058;-62
2021/09/19 09:16:19;;;;;;;8.75;7.70;;;19.30;99.90;;;;;;5131245;27;20100;-62
2021/09/19 09:18:53;;;;;;;16.73;15.00;;;19.50;99.90;;;;;;5149590;27;20054;-61
2021/09/19 09:21:30;;;;;;;8.80;7.90;;;20.00;99.90;;;;;;5150691;27;20051;-59
2021/09/19 09:24:01;;;;;;;20.10;17.98;;;20.10;99.90;;;;;;5139160;27;20063;-62
2021/09/19 09:26:31;;;;;;;19.17;17.23;;;20.70;99.90;;;;;;5146473;27;20054;-62
2021/09/19 09:29:06;;;;;;;9.93;8.57;;;20.90;99.90;;;;;;5144946;27;20050;-62
2021/09/19 09:31:45;;;;;;;7.88;7.07;;;21.60;99.90;;;;;;5140739;27;20066;-62
2021/09/19 09:34:18;;;;;;;10.15;8.00;;;22.00;99.90;;;;;;5148197;27;20512;-61
2021/09/19 09:36:51;;;;;;;8.98;6.32;;;22.10;95.20;;;;;;5147237;27;20051;-64
2021/09/19 09:39:30;;;;;;;9.98;8.82;;;22.20;95.80;;;;;;5144581;27;20089;-63
2021/09/19 09:42:08;;;;;;;13.52;12.10;;;22.20;93.80;;;;;;5147359;27;20054;-62
2021/09/19 09:44:39;;;;;;;16.30;14.73;;;22.10;90.30;;;;;;5141810;27;20094;-61
2021/09/19 09:47:18;;;;;;;11.88;10.40;;;22.20;92.50;;;;;;5115796;27;20090;-61
2021/09/19 09:49:49;;;;;;;7.43;6.25;;;22.20;90.60;;;;;;5142093;27;20051;-62
2021/09/19 09:52:27;;;;;;;6.82;5.95;;;22.10;91.80;;;;;;5141910;27;20157;-61
2021/09/19 09:55:00;;;;;;;6.80;5.88;;;22.40;92.10;;;;;;5143318;27;20066;-60
2021/09/19 09:57:35;;;;;;;8.30;6.32;;;22.90;86.60;;;;;;5148440;27;20119;-61
2021/09/19 10:00:18;;;;;;;11.93;10.32;;;23.60;79.90;;;;;;5147970;27;20516;-60
2021/09/19 10:02:48;;;;;;;6.25;4.20;;;23.40;73.70;;;;;;5130114;27;20059;-60
2021/09/19 10:05:16;;;;;;;6.25;4.78;;;23.50;68.30;;;;;;5143432;27;20086;-61
2021/09/19 10:07:44;;;;;;;12.57;11.13;;;24.00;69.00;;;;;;5141022;27;20054;-63
2021/09/19 10:10:17;;;;;;;7.43;4.50;;;24.60;69.40;;;;;;5140233;27;20051;-62
2021/09/19 10:12:50;;;;;;;9.20;6.78;;;25.40;61.80;;;;;;5147408;27;20081;-63
2021/09/19 10:15:22;;;;;;;7.03;5.93;;;25.20;64.30;;;;;;5133344;27;20047;-63
2021/09/19 10:17:55;;;;;;;7.45;4.95;;;25.50;60.40;;;;;;5103623;27;20440;-62
2021/09/19 10:20:44;;;;;;;5.20;4.28;;;25.10;59.70;;;;;;5145925;27;20129;-62
2021/09/19 10:23:27;;;;;;;5.65;4.03;;;24.60;59.60;;;;;;5143029;27;20051;-62
2021/09/19 10:26:09;;;;;;;5.53;4.72;;;23.40;61.50;;;;;;5127979;27;20540;-62
2021/09/19 10:28:45;;;;;;;13.43;12.05;;;24.00;62.10;;;;;;5144389;27;20166;-63
2021/09/19 10:31:25;;;;;;;8.35;7.53;;;24.30;61.40;;;;;;5144270;27;20042;-62
2021/09/19 10:33:56;;;;;;;7.28;6.40;;;24.90;61.80;;;;;;5146282;27;20421;-62
2021/09/19 10:36:29;;;;;;;11.90;8.75;;;25.50;61.40;;;;;;5142259;27;20073;-63
2021/09/19 10:39:18;;;;;;;7.40;5.13;;;25.50;60.90;;;;;;5143892;27;20057;-61
2021/09/19 10:42:21;;;;;;;5.85;4.53;;;25.50;58.00;;;;;;5142064;27;20051;-62
2021/09/19 10:44:51;;;;;;;5.45;4.60;;;26.10;57.30;;;;;;5125265;27;20604;-62
2021/09/19 10:47:24;;;;;;;15.60;13.95;;;26.30;58.30;;;;;;5146136;27;20065;-59
2021/09/19 10:49:50;;;;;;;12.50;11.27;;;26.40;57.00;;;;;;5143195;27;20503;-60
2021/09/19 10:52:18;;;;;;;6.28;4.63;;;26.20;57.60;;;;;;5142463;27;20074;-61
2021/09/19 10:54:54;;;;;;;9.02;8.02;;;26.20;56.00;;;;;;5146645;27;20070;-61
2021/09/19 10:57:29;;;;;;;6.32;4.30;;;26.30;55.10;;;;;;5146240;27;20121;-60
2021/09/19 11:00:08;;;;;;;28.17;25.23;;;26.20;55.40;;;;;;5128779;27;20496;-60
2021/09/19 11:02:38;;;;;;;10.55;9.18;;;26.50;56.30;;;;;;5145657;27;20085;-60
2021/09/19 11:05:28;;;;;;;13.75;12.40;;;26.80;55.50;;;;;;5147743;27;20051;-61
2021/09/19 11:08:35;;;;;;;10.38;7.93;;;26.80;52.70;;;;;;5144789;27;20122;-60
2021/09/19 11:11:14;;;;;;;28.83;26.08;;;26.80;52.90;;;;;;5127032;27;20111;-61
2021/09/19 11:13:53;;;;;;;8.35;6.38;;;26.50;53.10;;;;;;5122231;27;20115;-61
2021/09/19 11:16:36;;;;;;;12.32;11.10;;;26.00;52.70;;;;;;5148141;27;20107;-60
2021/09/19 11:19:06;;;;;;;7.90;5.65;;;25.20;54.40;;;;;;5146375;27;20047;-61
2021/09/19 11:21:45;;;;;;;14.57;13.18;;;25.70;55.10;;;;;;5146428;27;20043;-60
2021/09/19 11:24:19;;;;;;;6.30;4.85;;;26.00;54.30;;;;;;5127174;27;20058;-60
2021/09/19 11:26:51;;;;;;;9.10;8.18;;;25.20;54.00;;;;;;5136672;27;20810;-61
2021/09/19 11:29:24;;;;;;;7.30;4.78;;;25.50;53.90;;;;;;5137647;27;20058;-61
2021/09/19 11:31:56;;;;;;;5.47;3.78;;;25.50;52.90;;;;;;5143756;27;20061;-61
2021/09/19 11:34:28;;;;;;;5.53;4.28;;;25.50;53.20;;;;;;5121390;27;20510;-61
2021/09/19 11:36:58;;;;;;;9.05;5.15;;;25.50;54.20;;;;;;5144962;27;20047;-61
2021/09/19 11:39:37;;;;;;;6.50;4.38;;;25.60;54.80;;;;;;5139944;27;20062;-61
2021/09/19 11:42:11;;;;;;;5.47;4.18;;;25.60;54.00;;;;;;5143463;27;20049;-61
2021/09/19 11:44:47;;;;;;;6.25;4.45;;;25.80;53.00;;;;;;5139264;27;20121;-60
2021/09/19 11:47:22;;;;;;;6.38;3.20;;;26.00;52.70;;;;;;5140107;27;20463;-60
2021/09/19 11:49:54;;;;;;;8.10;6.90;;;26.40;51.90;;;;;;5135154;27;20066;-61
2021/09/19 11:52:27;;;;;;;14.07;12.75;;;27.10;51.70;;;;;;5144735;27;20555;-61
2021/09/19 11:54:57;;;;;;;6.68;4.85;;;26.80;51.50;;;;;;5145276;27;20051;-60
2021/09/19 11:57:30;;;;;;;12.83;11.57;;;26.80;50.50;;;;;;5143481;27;20047;-59
2021/09/19 12:00:05;;;;;;;7.00;4.88;;;26.30;50.20;;;;;;5141001;27;20047;-57
2021/09/19 12:02:41;;;;;;;13.93;11.77;;;25.90;51.20;;;;;;5145078;27;20043;-60
2021/09/19 12:05:13;;;;;;;7.30;4.35;;;25.70;51.20;;;;;;5142473;27;20776;-61
2021/09/19 12:07:44;;;;;;;9.30;6.93;;;25.50;51.70;;;;;;5143514;27;20057;-61
2021/09/19 12:10:13;;;;;;;8.95;7.55;;;25.50;51.80;;;;;;5143081;27;20078;-61
2021/09/19 12:12:47;;;;;;;14.48;12.85;;;25.10;52.00;;;;;;5142608;27;20415;-61
2021/09/19 12:15:26;;;;;;;31.52;28.55;;;25.20;52.50;;;;;;5145210;27;20486;-60
2021/09/19 12:18:07;;;;;;;17.08;15.18;;;24.70;53.60;;;;;;5141576;27;20566;-60
2021/09/19 12:20:36;;;;;;;16.73;14.98;;;24.30;55.10;;;;;;5144270;27;20082;-61
2021/09/19 12:23:18;;;;;;;22.00;19.52;;;24.10;55.10;;;;;;5147810;27;20081;-60
2021/09/19 12:25:51;;;;;;;5.22;4.28;;;23.90;56.30;;;;;;5146705;27;20451;-60
2021/09/19 12:28:37;;;;;;;5.40;3.53;;;23.70;56.30;;;;;;5143238;27;20054;-61
2021/09/19 12:31:06;;;;;;;43.17;38.97;;;23.70;56.60;;;;;;5142321;27;20046;-60
2021/09/19 12:33:57;;;;;;;14.00;11.93;;;23.30;57.50;;;;;;5144454;27;20895;-60
2021/09/19 12:36:24;;;;;;;7.30;3.72;;;23.10;58.80;;;;;;5140526;27;20055;-59
2021/09/19 12:38:58;;;;;;;10.57;7.35;;;22.90;59.20;;;;;;5144333;27;20050;-59
2021/09/19 12:41:33;;;;;;;5.40;3.97;;;22.50;60.70;;;;;;5142279;27;20122;-59
2021/09/19 12:44:20;;;;;;;9.75;7.93;;;22.10;61.10;;;;;;5130898;27;20051;-59
2021/09/19 12:46:57;;;;;;;6.05;3.97;;;22.20;62.40;;;;;;5130978;27;20161;-59
2021/09/19 12:49:44;;;;;;;5.95;3.13;;;22.10;62.60;;;;;;5131881;27;20066;-60
2021/09/19 12:52:22;;;;;;;4.65;3.40;;;22.60;62.20;;;;;;5151339;27;20116;-59
2021/09/19 12:55:05;;;;;;;4.50;2.92;;;23.20;60.10;;;;;;5132580;27;20459;-59
2021/09/19 12:57:37;;;;;;;5.90;2.83;;;23.00;59.70;;;;;;5151732;27;20051;-59
2021/09/19 13:00:15;;;;;;;4.90;3.00;;;22.60;60.00;;;;;;5152150;27;20050;-59
2021/09/19 13:03:03;;;;;;;4.65;2.83;;;22.10;61.00;;;;;;5151461;27;20073;-59